Terminal Aerodrome Forecast
Issued by NWS Shreveport, LA

Home | Current Version | Previous Version | Text Only | Print | Product List | Glossary On
Versions: 1 2 3 4 5 6 7 8 9 10 11 12 13 14 15 16 17 18
000
FTUS44 KSHV 181731
TAFTYR
TAF
KTYR 181731Z 1818/1918 31021G32KT P6SM FEW040 BKN280
     FM182000 33021G30KT P6SM SCT035 BKN280
     FM190000 34015G22KT P6SM BKN280
     FM190200 34011KT P6SM SCT280
     FM190400 34007KT P6SM SKC
     FM191500 36008KT P6SM SKC=

USA.gov is the U.S. government's official web portal to all federal, state and local government web resources and services.